Terminal Aerodrome Forecast
Issued by NWS Knoxville/Tri Cities, TN

Home | Current Version | Previous Version | Text Only | Print | Product List | Glossary On
Versions: 1 2 3 4 5 6 7 8 9 10 11 12 13 14 15 16 17 18 19 20 21 22 23 24 25 26 27 28 29
000
FTUS44 KMRX 011122
TAFCHA
TAF
KCHA 011122Z 0112/0212 18006KT P6SM OVC025
     FM011700 16005KT P6SM OVC012
     FM020100 VRB02KT 4SM -RA BR OVC007
     FM020500 VRB02KT 2SM -RA BR BKN004 OVC010=

USA.gov is the U.S. government's official web portal to all federal, state and local government web resources and services.